createdAt,value
2022-10-30T00:03:42.335Z,12.40
2022-10-30T00:09:22.286Z,13.70
2022-10-30T00:15:02.297Z,13.40
2022-10-30T00:20:42.329Z,12.90
2022-10-30T00:26:22.304Z,11.80
2022-10-30T00:32:02.357Z,12.20
2022-10-30T00:37:42.338Z,12.80
2022-10-30T00:43:44.342Z,12.70
2022-10-30T00:49:29.281Z,11.80
2022-10-30T00:55:11.316Z,20.70
2022-10-30T01:00:53.372Z,16.50
2022-10-30T01:06:42.317Z,12.30
2022-10-30T01:12:23.310Z,12.90
2022-10-30T01:18:24.313Z,18.90
2022-10-30T01:24:26.344Z,18.30
2022-10-30T01:30:26.398Z,20.40
2022-10-30T01:36:19.789Z,23.30
2022-10-30T01:42:01.337Z,20.80
2022-10-30T01:47:52.331Z,17.30
2022-10-30T01:53:56.373Z,15.00
2022-10-30T01:59:40.346Z,13.90
2022-10-30T02:05:22.360Z,13.80
2022-10-30T02:11:04.389Z,11.50
2022-10-30T02:16:50.368Z,11.60
2022-10-30T02:22:31.451Z,12.70
2022-10-30T02:28:11.359Z,12.20
2022-10-30T02:33:51.396Z,11.40
2022-10-30T02:39:31.366Z,11.40
2022-10-30T02:45:11.345Z,12.00
2022-10-30T02:50:51.428Z,12.50
2022-10-30T02:56:31.402Z,12.30
2022-10-30T03:02:11.630Z,12.20
2022-10-30T03:07:51.383Z,12.10
2022-10-30T03:13:31.429Z,12.50
2022-10-30T03:19:11.421Z,11.50
2022-10-30T03:24:51.378Z,11.30
2022-10-30T03:30:31.401Z,12.20
2022-10-30T03:36:11.431Z,11.60
2022-10-30T03:41:51.428Z,10.70
2022-10-30T03:47:31.444Z,11.20
2022-10-30T03:53:11.449Z,11.60
2022-10-30T03:58:51.444Z,12.50
2022-10-30T04:04:31.392Z,12.80
2022-10-30T04:10:21.139Z,12.40
2022-10-30T04:16:04.471Z,12.20
2022-10-30T04:21:44.441Z,14.20
2022-10-30T04:27:24.430Z,12.40
2022-10-30T04:33:05.426Z,12.50
2022-10-30T04:38:45.444Z,14.90
2022-10-30T04:44:25.465Z,15.10
2022-10-30T04:50:05.489Z,15.30
2022-10-30T04:55:46.450Z,12.90
2022-10-30T05:01:26.548Z,12.40
2022-10-30T05:07:07.502Z,13.10
2022-10-30T05:12:47.459Z,11.50
2022-10-30T05:18:27.502Z,10.60
2022-10-30T05:24:08.497Z,14.60
2022-10-30T05:29:49.477Z,16.40
2022-10-30T05:35:29.500Z,16.60
2022-10-30T05:41:09.550Z,15.40
2022-10-30T05:46:49.543Z,14.60
2022-10-30T05:52:31.446Z,11.60
2022-10-30T05:58:15.616Z,11.00
2022-10-30T06:03:55.529Z,11.20
2022-10-30T06:09:35.538Z,11.90
2022-10-30T06:15:24.523Z,10.70
2022-10-30T06:21:04.497Z,11.30
2022-10-30T06:26:53.515Z,11.60
2022-10-30T06:32:33.551Z,11.60
2022-10-30T06:38:15.516Z,10.30
2022-10-30T06:43:55.499Z,9.60
2022-10-30T06:49:37.501Z,10.60
2022-10-30T06:55:17.542Z,11.40
2022-10-30T07:01:12.607Z,10.50
2022-10-30T07:07:15.567Z,10.40
2022-10-30T07:13:11.540Z,10.30
2022-10-30T07:19:02.091Z,9.90
2022-10-30T07:24:44.562Z,10.00
2022-10-30T07:30:34.546Z,10.50
2022-10-30T07:36:46.548Z,9.70
2022-10-30T07:42:45.579Z,9.80
2022-10-30T07:48:44.777Z,11.30
2022-10-30T07:54:35.558Z,10.10
2022-10-30T08:00:32.582Z,9.50
2022-10-30T08:06:26.266Z,9.90
2022-10-30T08:12:06.677Z,8.40
2022-10-30T08:17:46.574Z,8.50
2022-10-30T08:23:28.584Z,8.40
2022-10-30T08:29:13.583Z,9.20
2022-10-30T08:34:53.623Z,8.50
2022-10-30T08:40:33.621Z,8.30
2022-10-30T08:46:14.725Z,8.00
2022-10-30T08:51:56.623Z,7.70
2022-10-30T08:57:36.734Z,7.30
2022-10-30T09:03:16.626Z,7.20
2022-10-30T09:09:15.671Z,6.10
2022-10-30T09:14:58.622Z,6.20
2022-10-30T09:20:45.635Z,6.80
2022-10-30T09:38:10.697Z,5.80
2022-10-30T09:44:22.850Z,5.10
2022-10-30T09:50:34.490Z,5.10
2022-10-30T09:56:30.116Z,5.10
2022-10-30T10:02:17.765Z,5.00
2022-10-30T10:08:58.256Z,4.60
2022-10-30T10:14:39.622Z,3.60
2022-10-30T10:20:33.739Z,3.50
2022-10-30T10:26:21.672Z,3.70
2022-10-30T10:32:40.899Z,3.00
2022-10-30T10:38:26.716Z,3.20
2022-10-30T10:44:29.682Z,2.90
2022-10-30T10:50:28.677Z,2.90
2022-10-30T10:56:11.672Z,3.10
2022-10-30T11:01:54.811Z,2.50
2022-10-30T11:07:37.671Z,2.40
2022-10-30T11:13:18.711Z,2.50
2022-10-30T11:19:00.711Z,2.50
2022-10-30T11:24:45.703Z,2.40
2022-10-30T11:30:35.762Z,2.00
2022-10-30T11:36:24.782Z,2.40
2022-10-30T11:42:17.693Z,2.40
2022-10-30T11:48:02.473Z,2.40
2022-10-30T11:53:46.691Z,3.70
2022-10-30T11:59:34.706Z,1.70
2022-10-30T12:05:16.772Z,1.60
2022-10-30T12:10:59.703Z,1.30
2022-10-30T12:16:40.722Z,1.20
2022-10-30T12:22:20.773Z,1.40
2022-10-30T12:28:00.762Z,1.50
2022-10-30T12:33:45.759Z,1.50
2022-10-30T12:39:31.742Z,1.40
2022-10-30T12:45:25.756Z,1.90
2022-10-30T12:51:21.227Z,1.60
2022-10-30T12:57:18.756Z,2.00
2022-10-30T13:03:09.736Z,2.10
2022-10-30T13:14:35.820Z,2.20
2022-10-30T13:20:38.798Z,3.40
2022-10-30T13:26:47.748Z,2.60
2022-10-30T13:32:44.829Z,2.60
2022-10-30T13:38:38.871Z,3.30
2022-10-30T13:44:31.795Z,3.80
2022-10-30T13:50:27.793Z,4.10
2022-10-30T13:56:08.772Z,4.30
2022-10-30T14:01:56.413Z,5.50
2022-10-30T14:07:46.839Z,5.80
2022-10-30T14:13:17.523Z,5.60
2022-10-30T14:18:47.612Z,6.30
2022-10-30T14:24:04.387Z,6.50
2022-10-30T14:29:37.219Z,4.70
2022-10-30T14:34:44.391Z,7.00
2022-10-30T14:39:51.573Z,7.40
2022-10-30T14:45:14.467Z,5.60
2022-10-30T14:50:37.975Z,5.10
2022-10-30T14:55:55.749Z,6.10
2022-10-30T15:01:44.257Z,6.80
2022-10-30T15:06:59.510Z,5.90
2022-10-30T15:12:20.977Z,5.70
2022-10-30T15:17:31.879Z,5.50
2022-10-30T15:22:38.286Z,5.10
2022-10-30T15:27:47.484Z,5.40
2022-10-30T15:32:53.480Z,4.50
2022-10-30T15:38:05.190Z,4.70
2022-10-30T15:43:15.874Z,4.70
2022-10-30T15:48:27.262Z,5.20
2022-10-30T15:53:40.231Z,4.90
2022-10-30T15:58:54.364Z,5.50
2022-10-30T16:04:00.862Z,5.70
2022-10-30T16:09:14.219Z,7.20
2022-10-30T16:14:24.439Z,15.20
2022-10-30T16:19:38.318Z,21.30
2022-10-30T16:24:45.599Z,17.60
2022-10-30T16:29:53.770Z,14.90
2022-10-30T16:35:02.894Z,12.00
2022-10-30T16:40:15.232Z,11.50
2022-10-30T16:45:49.376Z,9.30
2022-10-30T16:51:00.857Z,8.60
2022-10-30T16:56:19.597Z,9.60
2022-10-30T17:01:28.633Z,8.40
2022-10-30T17:06:40.547Z,8.50
2022-10-30T17:12:01.765Z,10.50
2022-10-30T17:17:23.542Z,14.30
2022-10-30T17:22:31.917Z,16.10
2022-10-30T17:27:46.799Z,18.40
2022-10-30T17:32:56.048Z,18.50
2022-10-30T17:38:03.076Z,16.70
2022-10-30T17:43:11.369Z,17.40
2022-10-30T17:48:21.452Z,24.30
2022-10-30T17:53:28.657Z,40.70
2022-10-30T17:58:34.590Z,49.40
2022-10-30T18:03:40.968Z,72.70
2022-10-30T18:08:50.565Z,60.10
2022-10-30T18:13:57.865Z,61.80
2022-10-30T18:19:03.938Z,50.70
2022-10-30T18:24:14.693Z,44.00
2022-10-30T18:29:48.554Z,44.70
2022-10-30T18:34:54.806Z,37.50
2022-10-30T18:40:00.791Z,31.80
2022-10-30T18:45:19.728Z,53.30
2022-10-30T18:50:27.343Z,59.80
2022-10-30T18:55:37.372Z,59.30
2022-10-30T19:01:10.708Z,59.80
2022-10-30T19:06:13.689Z,46.80
2022-10-30T19:11:24.648Z,39.30
2022-10-30T19:16:32.169Z,44.10
2022-10-30T19:21:38.348Z,46.00
2022-10-30T19:26:44.827Z,43.40
2022-10-30T19:31:50.880Z,42.70
2022-10-30T19:36:56.809Z,47.40
2022-10-30T19:42:02.666Z,52.40
2022-10-30T19:47:10.434Z,54.20
2022-10-30T19:52:16.505Z,48.40
2022-10-30T19:57:22.502Z,46.90
2022-10-30T20:02:28.733Z,49.10
2022-10-30T20:07:34.549Z,61.40
2022-10-30T20:12:40.956Z,58.50
2022-10-30T20:17:47.599Z,62.10
2022-10-30T20:22:54.852Z,60.80
2022-10-30T20:28:05.841Z,59.60
2022-10-30T20:33:13.913Z,52.40
2022-10-30T20:38:21.937Z,49.40
2022-10-30T20:43:31.958Z,48.10
2022-10-30T20:48:38.085Z,51.90
2022-10-30T20:53:44.807Z,51.00
2022-10-30T20:58:53.862Z,52.40
2022-10-30T21:04:01.655Z,46.60
2022-10-30T21:09:08.179Z,47.90
2022-10-30T21:14:14.073Z,49.70
2022-10-30T21:19:20.000Z,54.50
2022-10-30T21:24:26.697Z,64.80
2022-10-30T21:29:35.150Z,85.60
2022-10-30T21:34:41.437Z,75.30
2022-10-30T21:39:47.456Z,73.20
2022-10-30T21:44:53.465Z,67.90
2022-10-30T21:49:59.342Z,62.30
2022-10-30T21:55:06.325Z,68.80
2022-10-30T22:00:14.875Z,66.60
2022-10-30T22:05:20.819Z,60.50
2022-10-30T22:10:27.695Z,59.60
2022-10-30T22:15:33.738Z,59.50
2022-10-30T22:20:39.642Z,58.30
2022-10-30T22:25:53.446Z,60.20
2022-10-30T22:31:05.311Z,53.00
2022-10-30T22:36:16.099Z,50.70
2022-10-30T22:41:24.275Z,51.00
2022-10-30T22:46:31.512Z,56.30
2022-10-30T22:51:39.539Z,53.20
2022-10-30T22:56:45.436Z,54.60
2022-10-30T23:01:51.383Z,53.20
2022-10-30T23:06:57.487Z,53.50
2022-10-30T23:12:03.814Z,58.10
2022-10-30T23:17:10.194Z,57.20
2022-10-30T23:22:16.121Z,46.90
2022-10-30T23:27:22.493Z,48.00
2022-10-30T23:32:28.669Z,48.50
2022-10-30T23:37:34.737Z,48.60
2022-10-30T23:42:40.777Z,50.60
2022-10-30T23:47:46.915Z,51.40
2022-10-30T23:52:52.997Z,48.60
2022-10-30T23:57:59.286Z,48.30
